sensor_id;sensor_type;location;lat;lon;timestamp;P1;durP1;ratioP1;P2;durP2;ratioP2
37971;SDS011;23794;48.234;8.344;2022-10-16T00:01:18;1.17;;;0.88;;
37971;SDS011;23794;48.234;8.344;2022-10-16T00:03:47;2.90;;;1.00;;
37971;SDS011;23794;48.234;8.344;2022-10-16T00:06:14;4.25;;;0.90;;
37971;SDS011;23794;48.234;8.344;2022-10-16T00:08:43;4.18;;;1.25;;
37971;SDS011;23794;48.234;8.344;2022-10-16T00:13:42;5.30;;;0.98;;
37971;SDS011;23794;48.234;8.344;2022-10-16T00:16:10;4.53;;;1.27;;
37971;SDS011;23794;48.234;8.344;2022-10-16T00:18:37;2.65;;;1.02;;
37971;SDS011;23794;48.234;8.344;2022-10-16T00:21:06;3.85;;;0.90;;
37971;SDS011;23794;48.234;8.344;2022-10-16T00:23:38;2.55;;;0.80;;
37971;SDS011;23794;48.234;8.344;2022-10-16T00:26:06;2.38;;;1.00;;
37971;SDS011;23794;48.234;8.344;2022-10-16T00:28:35;1.65;;;1.02;;
37971;SDS011;23794;48.234;8.344;2022-10-16T00:31:05;3.05;;;1.00;;
37971;SDS011;23794;48.234;8.344;2022-10-16T00:33:34;2.85;;;0.88;;
37971;SDS011;23794;48.234;8.344;2022-10-16T00:36:02;1.20;;;0.93;;
37971;SDS011;23794;48.234;8.344;2022-10-16T00:38:30;2.50;;;0.95;;
37971;SDS011;23794;48.234;8.344;2022-10-16T00:40:57;2.30;;;0.77;;
37971;SDS011;23794;48.234;8.344;2022-10-16T00:46:17;4.05;;;1.10;;
37971;SDS011;23794;48.234;8.344;2022-10-16T00:49:15;2.65;;;0.90;;
37971;SDS011;23794;48.234;8.344;2022-10-16T00:51:46;2.22;;;1.20;;
37971;SDS011;23794;48.234;8.344;2022-10-16T00:54:25;4.28;;;1.15;;
37971;SDS011;23794;48.234;8.344;2022-10-16T00:56:54;2.42;;;1.00;;
37971;SDS011;23794;48.234;8.344;2022-10-16T01:02:03;1.83;;;0.75;;
37971;SDS011;23794;48.234;8.344;2022-10-16T01:04:33;3.95;;;1.00;;
37971;SDS011;23794;48.234;8.344;2022-10-16T01:10:01;3.35;;;1.00;;
37971;SDS011;23794;48.234;8.344;2022-10-16T01:12:45;3.25;;;1.02;;
37971;SDS011;23794;48.234;8.344;2022-10-16T01:15:42;3.13;;;0.82;;
37971;SDS011;23794;48.234;8.344;2022-10-16T01:26:17;1.73;;;0.90;;
37971;SDS011;23794;48.234;8.344;2022-10-16T01:31:48;6.18;;;1.00;;
37971;SDS011;23794;48.234;8.344;2022-10-16T01:34:52;1.52;;;0.63;;
37971;SDS011;23794;48.234;8.344;2022-10-16T01:37:29;4.03;;;0.88;;
37971;SDS011;23794;48.234;8.344;2022-10-16T01:40:02;3.80;;;1.10;;
37971;SDS011;23794;48.234;8.344;2022-10-16T01:42:34;2.15;;;0.63;;
37971;SDS011;23794;48.234;8.344;2022-10-16T01:45:04;3.20;;;1.05;;
37971;SDS011;23794;48.234;8.344;2022-10-16T01:47:34;2.13;;;1.00;;
37971;SDS011;23794;48.234;8.344;2022-10-16T01:50:03;2.08;;;0.88;;
37971;SDS011;23794;48.234;8.344;2022-10-16T01:52:32;3.35;;;1.10;;
37971;SDS011;23794;48.234;8.344;2022-10-16T01:55:03;2.22;;;0.88;;
37971;SDS011;23794;48.234;8.344;2022-10-16T01:57:33;3.40;;;0.97;;
37971;SDS011;23794;48.234;8.344;2022-10-16T02:00:07;3.53;;;1.92;;
37971;SDS011;23794;48.234;8.344;2022-10-16T02:02:40;5.20;;;1.08;;
37971;SDS011;23794;48.234;8.344;2022-10-16T02:07:45;1.90;;;0.93;;
37971;SDS011;23794;48.234;8.344;2022-10-16T02:10:11;2.22;;;1.45;;
37971;SDS011;23794;48.234;8.344;2022-10-16T02:12:39;1.38;;;1.00;;
37971;SDS011;23794;48.234;8.344;2022-10-16T02:15:09;6.63;;;0.93;;
37971;SDS011;23794;48.234;8.344;2022-10-16T02:17:36;10.63;;;1.15;;
37971;SDS011;23794;48.234;8.344;2022-10-16T02:20:03;4.65;;;1.23;;
37971;SDS011;23794;48.234;8.344;2022-10-16T02:22:35;3.15;;;0.90;;
37971;SDS011;23794;48.234;8.344;2022-10-16T02:25:19;2.17;;;1.00;;
37971;SDS011;23794;48.234;8.344;2022-10-16T02:28:03;2.63;;;1.08;;
37971;SDS011;23794;48.234;8.344;2022-10-16T02:33:05;3.92;;;1.25;;
37971;SDS011;23794;48.234;8.344;2022-10-16T02:35:35;3.70;;;1.00;;
37971;SDS011;23794;48.234;8.344;2022-10-16T02:38:03;4.43;;;1.27;;
37971;SDS011;23794;48.234;8.344;2022-10-16T02:40:31;2.38;;;1.20;;
37971;SDS011;23794;48.234;8.344;2022-10-16T02:42:58;5.32;;;1.20;;
37971;SDS011;23794;48.234;8.344;2022-10-16T02:45:26;4.50;;;1.00;;
37971;SDS011;23794;48.234;8.344;2022-10-16T02:47:53;2.53;;;0.80;;
37971;SDS011;23794;48.234;8.344;2022-10-16T02:50:19;2.65;;;1.00;;
37971;SDS011;23794;48.234;8.344;2022-10-16T02:52:46;3.47;;;1.10;;
37971;SDS011;23794;48.234;8.344;2022-10-16T02:55:13;8.35;;;1.13;;
37971;SDS011;23794;48.234;8.344;2022-10-16T02:57:39;2.75;;;0.90;;
37971;SDS011;23794;48.234;8.344;2022-10-16T03:00:07;3.42;;;0.90;;
37971;SDS011;23794;48.234;8.344;2022-10-16T03:02:36;3.35;;;1.10;;
37971;SDS011;23794;48.234;8.344;2022-10-16T03:05:03;3.72;;;1.10;;
37971;SDS011;23794;48.234;8.344;2022-10-16T03:07:29;4.65;;;1.15;;
37971;SDS011;23794;48.234;8.344;2022-10-16T03:09:56;5.90;;;0.85;;
37971;SDS011;23794;48.234;8.344;2022-10-16T03:12:26;5.22;;;0.98;;
37971;SDS011;23794;48.234;8.344;2022-10-16T03:14:54;4.60;;;0.73;;
37971;SDS011;23794;48.234;8.344;2022-10-16T03:17:23;7.13;;;0.98;;
37971;SDS011;23794;48.234;8.344;2022-10-16T03:19:51;4.10;;;1.40;;
37971;SDS011;23794;48.234;8.344;2022-10-16T03:22:18;1.00;;;0.80;;
37971;SDS011;23794;48.234;8.344;2022-10-16T03:24:44;4.60;;;0.88;;
37971;SDS011;23794;48.234;8.344;2022-10-16T03:27:11;5.80;;;1.00;;
37971;SDS011;23794;48.234;8.344;2022-10-16T03:29:38;4.32;;;0.90;;
37971;SDS011;23794;48.234;8.344;2022-10-16T03:32:05;3.97;;;1.13;;
37971;SDS011;23794;48.234;8.344;2022-10-16T03:34:32;5.22;;;0.95;;
37971;SDS011;23794;48.234;8.344;2022-10-16T03:36:59;2.30;;;0.90;;
37971;SDS011;23794;48.234;8.344;2022-10-16T03:39:26;2.25;;;1.10;;
37971;SDS011;23794;48.234;8.344;2022-10-16T03:41:53;3.47;;;1.30;;
37971;SDS011;23794;48.234;8.344;2022-10-16T03:44:20;3.05;;;1.08;;
37971;SDS011;23794;48.234;8.344;2022-10-16T03:46:48;1.67;;;1.00;;
37971;SDS011;23794;48.234;8.344;2022-10-16T03:49:15;2.97;;;1.30;;
37971;SDS011;23794;48.234;8.344;2022-10-16T03:51:42;4.90;;;1.67;;
37971;SDS011;23794;48.234;8.344;2022-10-16T03:54:09;3.00;;;1.13;;
37971;SDS011;23794;48.234;8.344;2022-10-16T03:56:36;5.03;;;1.90;;
37971;SDS011;23794;48.234;8.344;2022-10-16T03:59:03;2.05;;;1.20;;
37971;SDS011;23794;48.234;8.344;2022-10-16T04:01:30;2.05;;;0.93;;
37971;SDS011;23794;48.234;8.344;2022-10-16T04:03:57;4.95;;;1.52;;
37971;SDS011;23794;48.234;8.344;2022-10-16T04:06:24;3.35;;;1.10;;
37971;SDS011;23794;48.234;8.344;2022-10-16T04:08:50;2.55;;;0.93;;
37971;SDS011;23794;48.234;8.344;2022-10-16T04:11:17;2.45;;;0.82;;
37971;SDS011;23794;48.234;8.344;2022-10-16T04:13:44;2.10;;;0.90;;
37971;SDS011;23794;48.234;8.344;2022-10-16T04:16:11;3.13;;;1.08;;
37971;SDS011;23794;48.234;8.344;2022-10-16T04:18:38;2.38;;;1.10;;
37971;SDS011;23794;48.234;8.344;2022-10-16T04:21:05;1.77;;;1.00;;
37971;SDS011;23794;48.234;8.344;2022-10-16T04:23:33;4.65;;;1.20;;
37971;SDS011;23794;48.234;8.344;2022-10-16T04:25:59;15.23;;;1.42;;
37971;SDS011;23794;48.234;8.344;2022-10-16T04:28:26;5.53;;;1.20;;
37971;SDS011;23794;48.234;8.344;2022-10-16T04:30:53;1.92;;;1.00;;
37971;SDS011;23794;48.234;8.344;2022-10-16T04:33:20;2.10;;;0.90;;
37971;SDS011;23794;48.234;8.344;2022-10-16T04:35:47;3.83;;;1.17;;
37971;SDS011;23794;48.234;8.344;2022-10-16T04:38:14;7.07;;;1.20;;
37971;SDS011;23794;48.234;8.344;2022-10-16T04:40:41;4.07;;;0.90;;
37971;SDS011;23794;48.234;8.344;2022-10-16T04:43:08;3.60;;;1.02;;
37971;SDS011;23794;48.234;8.344;2022-10-16T04:45:35;5.95;;;0.93;;
37971;SDS011;23794;48.234;8.344;2022-10-16T04:48:02;6.53;;;1.08;;
37971;SDS011;23794;48.234;8.344;2022-10-16T04:50:29;3.30;;;0.90;;
37971;SDS011;23794;48.234;8.344;2022-10-16T04:53:05;1.60;;;1.00;;
37971;SDS011;23794;48.234;8.344;2022-10-16T04:55:32;4.53;;;1.10;;
37971;SDS011;23794;48.234;8.344;2022-10-16T04:57:59;1.30;;;0.98;;
37971;SDS011;23794;48.234;8.344;2022-10-16T05:00:26;6.07;;;1.10;;
37971;SDS011;23794;48.234;8.344;2022-10-16T05:02:53;3.72;;;1.10;;
37971;SDS011;23794;48.234;8.344;2022-10-16T05:05:19;3.72;;;1.40;;
37971;SDS011;23794;48.234;8.344;2022-10-16T05:07:47;1.80;;;1.10;;
37971;SDS011;23794;48.234;8.344;2022-10-16T05:10:16;1.55;;;1.20;;
37971;SDS011;23794;48.234;8.344;2022-10-16T05:12:43;2.05;;;1.00;;
37971;SDS011;23794;48.234;8.344;2022-10-16T05:15:09;2.25;;;1.02;;
37971;SDS011;23794;48.234;8.344;2022-10-16T05:17:36;4.32;;;1.30;;
37971;SDS011;23794;48.234;8.344;2022-10-16T05:20:10;1.60;;;1.13;;
37971;SDS011;23794;48.234;8.344;2022-10-16T05:22:37;2.95;;;1.25;;
37971;SDS011;23794;48.234;8.344;2022-10-16T05:25:04;3.47;;;1.00;;
37971;SDS011;23794;48.234;8.344;2022-10-16T05:27:31;2.92;;;0.90;;
37971;SDS011;23794;48.234;8.344;2022-10-16T05:29:58;5.70;;;1.27;;
37971;SDS011;23794;48.234;8.344;2022-10-16T05:32:25;6.95;;;1.50;;
37971;SDS011;23794;48.234;8.344;2022-10-16T05:34:51;5.30;;;1.40;;
37971;SDS011;23794;48.234;8.344;2022-10-16T05:37:18;4.75;;;1.27;;
37971;SDS011;23794;48.234;8.344;2022-10-16T05:39:45;2.33;;;0.93;;
37971;SDS011;23794;48.234;8.344;2022-10-16T05:42:12;5.13;;;1.30;;
37971;SDS011;23794;48.234;8.344;2022-10-16T05:44:39;3.13;;;1.10;;
37971;SDS011;23794;48.234;8.344;2022-10-16T05:47:06;3.25;;;1.25;;
37971;SDS011;23794;48.234;8.344;2022-10-16T05:49:33;3.90;;;1.95;;
37971;SDS011;23794;48.234;8.344;2022-10-16T05:52:05;2.03;;;1.15;;
37971;SDS011;23794;48.234;8.344;2022-10-16T05:54:32;2.00;;;1.20;;
37971;SDS011;23794;48.234;8.344;2022-10-16T05:56:59;3.00;;;1.10;;
37971;SDS011;23794;48.234;8.344;2022-10-16T05:59:26;2.75;;;0.93;;
37971;SDS011;23794;48.234;8.344;2022-10-16T06:01:53;3.92;;;1.02;;
37971;SDS011;23794;48.234;8.344;2022-10-16T06:04:19;2.92;;;1.25;;
37971;SDS011;23794;48.234;8.344;2022-10-16T06:06:46;2.70;;;1.00;;
37971;SDS011;23794;48.234;8.344;2022-10-16T06:09:13;3.42;;;1.33;;
37971;SDS011;23794;48.234;8.344;2022-10-16T06:11:40;6.05;;;1.50;;
37971;SDS011;23794;48.234;8.344;2022-10-16T06:14:07;3.33;;;2.25;;
37971;SDS011;23794;48.234;8.344;2022-10-16T06:16:35;4.18;;;2.65;;
37971;SDS011;23794;48.234;8.344;2022-10-16T06:19:04;5.47;;;3.63;;
37971;SDS011;23794;48.234;8.344;2022-10-16T06:21:35;4.82;;;2.40;;
37971;SDS011;23794;48.234;8.344;2022-10-16T06:24:02;9.77;;;4.20;;
37971;SDS011;23794;48.234;8.344;2022-10-16T06:26:30;5.28;;;3.50;;
37971;SDS011;23794;48.234;8.344;2022-10-16T06:28:58;4.22;;;2.67;;
37971;SDS011;23794;48.234;8.344;2022-10-16T06:31:26;3.65;;;2.10;;
37971;SDS011;23794;48.234;8.344;2022-10-16T06:33:56;4.43;;;2.13;;
37971;SDS011;23794;48.234;8.344;2022-10-16T06:36:24;2.83;;;1.80;;
37971;SDS011;23794;48.234;8.344;2022-10-16T06:38:51;5.75;;;2.00;;
37971;SDS011;23794;48.234;8.344;2022-10-16T06:41:19;2.92;;;2.30;;
37971;SDS011;23794;48.234;8.344;2022-10-16T06:43:47;4.43;;;2.30;;
37971;SDS011;23794;48.234;8.344;2022-10-16T06:46:16;5.93;;;2.60;;
37971;SDS011;23794;48.234;8.344;2022-10-16T06:48:46;2.47;;;1.88;;
37971;SDS011;23794;48.234;8.344;2022-10-16T06:51:17;4.97;;;2.00;;
37971;SDS011;23794;48.234;8.344;2022-10-16T06:53:49;3.95;;;2.00;;
37971;SDS011;23794;48.234;8.344;2022-10-16T06:56:30;3.33;;;1.50;;
37971;SDS011;23794;48.234;8.344;2022-10-16T06:58:58;3.08;;;1.85;;
37971;SDS011;23794;48.234;8.344;2022-10-16T07:01:26;3.63;;;2.08;;
37971;SDS011;23794;48.234;8.344;2022-10-16T07:03:53;4.35;;;1.75;;
37971;SDS011;23794;48.234;8.344;2022-10-16T07:06:21;3.15;;;1.70;;
37971;SDS011;23794;48.234;8.344;2022-10-16T07:08:52;4.00;;;1.45;;
37971;SDS011;23794;48.234;8.344;2022-10-16T07:11:20;3.38;;;1.45;;
37971;SDS011;23794;48.234;8.344;2022-10-16T07:13:49;6.20;;;1.40;;
37971;SDS011;23794;48.234;8.344;2022-10-16T07:16:25;4.18;;;1.73;;
37971;SDS011;23794;48.234;8.344;2022-10-16T07:18:54;6.63;;;1.90;;
37971;SDS011;23794;48.234;8.344;2022-10-16T07:21:30;5.45;;;1.85;;
37971;SDS011;23794;48.234;8.344;2022-10-16T07:24:02;3.65;;;1.98;;
37971;SDS011;23794;48.234;8.344;2022-10-16T07:29:01;4.00;;;1.55;;
37971;SDS011;23794;48.234;8.344;2022-10-16T07:31:30;4.95;;;1.70;;
37971;SDS011;23794;48.234;8.344;2022-10-16T07:33:57;3.38;;;1.85;;
37971;SDS011;23794;48.234;8.344;2022-10-16T07:36:25;3.45;;;1.30;;
37971;SDS011;23794;48.234;8.344;2022-10-16T07:38:52;5.40;;;1.40;;
37971;SDS011;23794;48.234;8.344;2022-10-16T07:41:24;4.03;;;2.03;;
37971;SDS011;23794;48.234;8.344;2022-10-16T07:43:51;5.47;;;2.22;;
37971;SDS011;23794;48.234;8.344;2022-10-16T07:46:19;6.97;;;4.10;;
37971;SDS011;23794;48.234;8.344;2022-10-16T07:48:48;15.55;;;8.05;;
37971;SDS011;23794;48.234;8.344;2022-10-16T07:51:16;11.57;;;6.18;;
37971;SDS011;23794;48.234;8.344;2022-10-16T07:53:44;8.02;;;4.38;;
37971;SDS011;23794;48.234;8.344;2022-10-16T07:56:12;7.47;;;4.45;;
37971;SDS011;23794;48.234;8.344;2022-10-16T07:58:39;7.32;;;3.67;;
37971;SDS011;23794;48.234;8.344;2022-10-16T08:01:07;7.22;;;3.45;;
37971;SDS011;23794;48.234;8.344;2022-10-16T08:03:36;5.22;;;3.10;;
37971;SDS011;23794;48.234;8.344;2022-10-16T08:06:03;6.97;;;3.05;;
37971;SDS011;23794;48.234;8.344;2022-10-16T08:08:30;4.75;;;3.13;;
37971;SDS011;23794;48.234;8.344;2022-10-16T08:10:57;5.45;;;3.38;;
37971;SDS011;23794;48.234;8.344;2022-10-16T08:13:24;7.03;;;3.20;;
37971;SDS011;23794;48.234;8.344;2022-10-16T08:15:53;5.47;;;3.33;;
37971;SDS011;23794;48.234;8.344;2022-10-16T08:18:20;5.00;;;3.00;;
37971;SDS011;23794;48.234;8.344;2022-10-16T08:20:47;4.47;;;2.85;;
37971;SDS011;23794;48.234;8.344;2022-10-16T08:23:20;5.28;;;2.70;;
37971;SDS011;23794;48.234;8.344;2022-10-16T08:25:47;4.68;;;3.08;;
37971;SDS011;23794;48.234;8.344;2022-10-16T08:28:14;5.90;;;2.97;;
37971;SDS011;23794;48.234;8.344;2022-10-16T08:30:41;8.68;;;2.97;;
37971;SDS011;23794;48.234;8.344;2022-10-16T08:33:08;3.35;;;2.33;;
37971;SDS011;23794;48.234;8.344;2022-10-16T08:35:35;3.63;;;2.60;;
37971;SDS011;23794;48.234;8.344;2022-10-16T08:38:05;4.63;;;2.28;;
37971;SDS011;23794;48.234;8.344;2022-10-16T08:40:34;4.65;;;3.10;;
37971;SDS011;23794;48.234;8.344;2022-10-16T08:43:16;4.45;;;3.03;;
37971;SDS011;23794;48.234;8.344;2022-10-16T08:45:58;5.32;;;3.20;;
37971;SDS011;23794;48.234;8.344;2022-10-16T08:48:30;7.05;;;3.13;;
37971;SDS011;23794;48.234;8.344;2022-10-16T08:51:00;7.97;;;3.30;;
37971;SDS011;23794;48.234;8.344;2022-10-16T08:53:41;9.17;;;4.80;;
37971;SDS011;23794;48.234;8.344;2022-10-16T08:56:12;12.52;;;7.15;;
37971;SDS011;23794;48.234;8.344;2022-10-16T08:58:39;8.85;;;5.18;;
37971;SDS011;23794;48.234;8.344;2022-10-16T09:01:11;8.25;;;3.72;;
37971;SDS011;23794;48.234;8.344;2022-10-16T09:06:47;5.68;;;3.88;;
37971;SDS011;23794;48.234;8.344;2022-10-16T09:12:37;5.70;;;3.97;;
37971;SDS011;23794;48.234;8.344;2022-10-16T09:17:52;7.97;;;4.13;;
37971;SDS011;23794;48.234;8.344;2022-10-16T09:23:12;6.18;;;4.03;;
37971;SDS011;23794;48.234;8.344;2022-10-16T09:25:45;4.55;;;3.55;;
37971;SDS011;23794;48.234;8.344;2022-10-16T09:28:14;3.78;;;3.17;;
37971;SDS011;23794;48.234;8.344;2022-10-16T09:30:42;5.82;;;3.15;;
37971;SDS011;23794;48.234;8.344;2022-10-16T09:33:10;6.75;;;3.15;;
37971;SDS011;23794;48.234;8.344;2022-10-16T09:35:39;6.20;;;2.90;;
37971;SDS011;23794;48.234;8.344;2022-10-16T09:40:52;3.25;;;2.78;;
37971;SDS011;23794;48.234;8.344;2022-10-16T09:43:33;4.47;;;3.25;;
37971;SDS011;23794;48.234;8.344;2022-10-16T09:46:30;6.97;;;3.08;;
37971;SDS011;23794;48.234;8.344;2022-10-16T09:49:17;6.25;;;3.55;;
37971;SDS011;23794;48.234;8.344;2022-10-16T09:51:48;6.35;;;3.40;;
37971;SDS011;23794;48.234;8.344;2022-10-16T09:54:16;4.30;;;2.95;;
37971;SDS011;23794;48.234;8.344;2022-10-16T09:56:45;6.57;;;3.80;;
37971;SDS011;23794;48.234;8.344;2022-10-16T09:59:16;7.20;;;4.50;;
37971;SDS011;23794;48.234;8.344;2022-10-16T10:01:46;4.00;;;2.72;;
37971;SDS011;23794;48.234;8.344;2022-10-16T10:04:17;4.35;;;3.05;;
37971;SDS011;23794;48.234;8.344;2022-10-16T10:06:50;3.58;;;2.65;;
37971;SDS011;23794;48.234;8.344;2022-10-16T10:09:26;5.10;;;2.95;;
37971;SDS011;23794;48.234;8.344;2022-10-16T10:14:26;2.70;;;1.85;;
37971;SDS011;23794;48.234;8.344;2022-10-16T10:19:39;4.97;;;2.20;;
37971;SDS011;23794;48.234;8.344;2022-10-16T10:22:19;4.03;;;1.90;;
37971;SDS011;23794;48.234;8.344;2022-10-16T10:36:00;3.53;;;1.00;;
37971;SDS011;23794;48.234;8.344;2022-10-16T10:39:00;3.25;;;1.17;;
37971;SDS011;23794;48.234;8.344;2022-10-16T10:44:36;3.45;;;1.20;;
37971;SDS011;23794;48.234;8.344;2022-10-16T10:50:08;3.38;;;1.70;;
37971;SDS011;23794;48.234;8.344;2022-10-16T10:52:41;2.90;;;1.17;;
37971;SDS011;23794;48.234;8.344;2022-10-16T11:06:12;4.78;;;1.30;;
37971;SDS011;23794;48.234;8.344;2022-10-16T11:08:51;2.08;;;1.20;;
37971;SDS011;23794;48.234;8.344;2022-10-16T11:11:30;3.33;;;1.30;;
37971;SDS011;23794;48.234;8.344;2022-10-16T11:14:14;1.88;;;1.35;;
37971;SDS011;23794;48.234;8.344;2022-10-16T11:17:20;4.95;;;1.40;;
37971;SDS011;23794;48.234;8.344;2022-10-16T11:19:57;3.25;;;1.33;;
37971;SDS011;23794;48.234;8.344;2022-10-16T11:22:34;2.78;;;1.63;;
37971;SDS011;23794;48.234;8.344;2022-10-16T11:30:55;2.20;;;1.25;;
37971;SDS011;23794;48.234;8.344;2022-10-16T11:33:28;2.65;;;1.92;;
37971;SDS011;23794;48.234;8.344;2022-10-16T11:39:22;3.38;;;1.40;;
37971;SDS011;23794;48.234;8.344;2022-10-16T11:42:10;2.45;;;1.10;;
37971;SDS011;23794;48.234;8.344;2022-10-16T11:47:36;1.88;;;1.17;;
37971;SDS011;23794;48.234;8.344;2022-10-16T11:50:41;2.13;;;1.40;;
37971;SDS011;23794;48.234;8.344;2022-10-16T11:55:48;2.55;;;1.35;;
37971;SDS011;23794;48.234;8.344;2022-10-16T12:06:11;4.18;;;1.27;;
37971;SDS011;23794;48.234;8.344;2022-10-16T12:08:59;3.22;;;1.10;;
37971;SDS011;23794;48.234;8.344;2022-10-16T12:17:03;3.05;;;1.30;;
37971;SDS011;23794;48.234;8.344;2022-10-16T12:20:18;2.47;;;1.30;;
37971;SDS011;23794;48.234;8.344;2022-10-16T12:22:50;2.70;;;1.38;;
37971;SDS011;23794;48.234;8.344;2022-10-16T12:25:40;1.40;;;1.23;;
37971;SDS011;23794;48.234;8.344;2022-10-16T12:30:42;1.80;;;0.93;;
37971;SDS011;23794;48.234;8.344;2022-10-16T12:33:28;3.88;;;1.27;;
37971;SDS011;23794;48.234;8.344;2022-10-16T12:35:56;1.58;;;1.13;;
37971;SDS011;23794;48.234;8.344;2022-10-16T12:38:26;1.85;;;1.20;;
37971;SDS011;23794;48.234;8.344;2022-10-16T12:41:04;2.45;;;1.30;;
37971;SDS011;23794;48.234;8.344;2022-10-16T12:43:36;2.33;;;1.33;;
37971;SDS011;23794;48.234;8.344;2022-10-16T12:46:05;1.55;;;1.30;;
37971;SDS011;23794;48.234;8.344;2022-10-16T12:48:35;5.07;;;1.30;;
37971;SDS011;23794;48.234;8.344;2022-10-16T12:56:31;5.07;;;1.30;;
37971;SDS011;23794;48.234;8.344;2022-10-16T13:04:23;2.85;;;1.00;;
37971;SDS011;23794;48.234;8.344;2022-10-16T13:23:34;2.28;;;1.08;;
37971;SDS011;23794;48.234;8.344;2022-10-16T13:28:41;2.72;;;1.35;;
37971;SDS011;23794;48.234;8.344;2022-10-16T13:31:42;3.78;;;1.30;;
37971;SDS011;23794;48.234;8.344;2022-10-16T13:34:04;2.10;;;0.98;;
37971;SDS011;23794;48.234;8.344;2022-10-16T13:36:42;2.97;;;1.30;;
37971;SDS011;23794;48.234;8.344;2022-10-16T13:39:26;1.48;;;1.20;;
37971;SDS011;23794;48.234;8.344;2022-10-16T13:42:04;4.60;;;1.20;;
37971;SDS011;23794;48.234;8.344;2022-10-16T13:44:42;4.40;;;1.40;;
37971;SDS011;23794;48.234;8.344;2022-10-16T13:47:19;2.75;;;1.50;;
37971;SDS011;23794;48.234;8.344;2022-10-16T13:49:47;3.42;;;1.40;;
37971;SDS011;23794;48.234;8.344;2022-10-16T13:52:27;1.80;;;1.10;;
37971;SDS011;23794;48.234;8.344;2022-10-16T13:54:55;3.78;;;1.30;;
37971;SDS011;23794;48.234;8.344;2022-10-16T13:57:27;2.03;;;1.20;;
37971;SDS011;23794;48.234;8.344;2022-10-16T13:59:55;2.47;;;1.52;;
37971;SDS011;23794;48.234;8.344;2022-10-16T14:04:53;4.65;;;1.38;;
37971;SDS011;23794;48.234;8.344;2022-10-16T14:07:24;2.10;;;1.20;;
37971;SDS011;23794;48.234;8.344;2022-10-16T14:09:54;2.58;;;1.10;;
37971;SDS011;23794;48.234;8.344;2022-10-16T14:12:24;2.47;;;1.20;;
37971;SDS011;23794;48.234;8.344;2022-10-16T14:14:54;1.50;;;0.90;;
37971;SDS011;23794;48.234;8.344;2022-10-16T14:17:27;1.30;;;1.15;;
37971;SDS011;23794;48.234;8.344;2022-10-16T14:19:57;3.15;;;1.10;;
37971;SDS011;23794;48.234;8.344;2022-10-16T14:25:40;4.53;;;1.40;;
37971;SDS011;23794;48.234;8.344;2022-10-16T14:28:04;1.63;;;1.00;;
37971;SDS011;23794;48.234;8.344;2022-10-16T14:30:35;3.35;;;1.05;;
37971;SDS011;23794;48.234;8.344;2022-10-16T14:33:06;2.88;;;1.05;;
37971;SDS011;23794;48.234;8.344;2022-10-16T14:35:56;1.85;;;0.93;;
37971;SDS011;23794;48.234;8.344;2022-10-16T14:38:29;2.22;;;1.10;;
37971;SDS011;23794;48.234;8.344;2022-10-16T14:40:58;1.60;;;0.82;;
37971;SDS011;23794;48.234;8.344;2022-10-16T14:45:55;1.30;;;1.02;;
37971;SDS011;23794;48.234;8.344;2022-10-16T14:48:23;2.33;;;1.00;;
37971;SDS011;23794;48.234;8.344;2022-10-16T14:50:51;1.17;;;0.90;;
37971;SDS011;23794;48.234;8.344;2022-10-16T14:53:17;2.00;;;0.88;;
37971;SDS011;23794;48.234;8.344;2022-10-16T14:55:44;1.13;;;0.88;;
37971;SDS011;23794;48.234;8.344;2022-10-16T14:58:15;3.03;;;0.90;;
37971;SDS011;23794;48.234;8.344;2022-10-16T15:00:47;2.63;;;0.80;;
37971;SDS011;23794;48.234;8.344;2022-10-16T15:03:15;2.03;;;0.93;;
37971;SDS011;23794;48.234;8.344;2022-10-16T15:05:43;4.38;;;0.80;;
37971;SDS011;23794;48.234;8.344;2022-10-16T15:08:10;1.40;;;0.90;;
37971;SDS011;23794;48.234;8.344;2022-10-16T15:10:40;1.55;;;0.80;;
37971;SDS011;23794;48.234;8.344;2022-10-16T15:13:11;5.38;;;1.23;;
37971;SDS011;23794;48.234;8.344;2022-10-16T15:15:43;4.20;;;1.17;;
37971;SDS011;23794;48.234;8.344;2022-10-16T15:18:12;0.80;;;0.70;;
37971;SDS011;23794;48.234;8.344;2022-10-16T15:20:41;2.97;;;1.10;;
37971;SDS011;23794;48.234;8.344;2022-10-16T15:28:18;2.70;;;0.90;;
37971;SDS011;23794;48.234;8.344;2022-10-16T15:30:46;3.80;;;1.38;;
37971;SDS011;23794;48.234;8.344;2022-10-16T15:33:17;4.47;;;1.10;;
37971;SDS011;23794;48.234;8.344;2022-10-16T15:35:48;2.30;;;0.90;;
37971;SDS011;23794;48.234;8.344;2022-10-16T15:38:17;6.20;;;1.10;;
37971;SDS011;23794;48.234;8.344;2022-10-16T15:40:46;3.75;;;0.80;;
37971;SDS011;23794;48.234;8.344;2022-10-16T15:43:15;3.13;;;0.70;;
37971;SDS011;23794;48.234;8.344;2022-10-16T15:45:42;4.40;;;0.95;;
37971;SDS011;23794;48.234;8.344;2022-10-16T15:48:12;5.80;;;1.20;;
37971;SDS011;23794;48.234;8.344;2022-10-16T15:50:40;4.70;;;0.98;;
37971;SDS011;23794;48.234;8.344;2022-10-16T15:53:09;3.60;;;1.00;;
37971;SDS011;23794;48.234;8.344;2022-10-16T15:55:36;4.38;;;0.93;;
37971;SDS011;23794;48.234;8.344;2022-10-16T15:58:04;2.83;;;0.95;;
37971;SDS011;23794;48.234;8.344;2022-10-16T16:00:31;2.78;;;0.95;;
37971;SDS011;23794;48.234;8.344;2022-10-16T16:02:59;2.53;;;1.02;;
37971;SDS011;23794;48.234;8.344;2022-10-16T16:05:26;3.72;;;1.13;;
37971;SDS011;23794;48.234;8.344;2022-10-16T16:07:53;4.95;;;1.27;;
37971;SDS011;23794;48.234;8.344;2022-10-16T16:10:20;3.60;;;0.98;;
37971;SDS011;23794;48.234;8.344;2022-10-16T16:12:48;2.85;;;0.98;;
37971;SDS011;23794;48.234;8.344;2022-10-16T16:17:47;4.90;;;1.48;;
37971;SDS011;23794;48.234;8.344;2022-10-16T16:20:15;3.17;;;1.23;;
37971;SDS011;23794;48.234;8.344;2022-10-16T16:22:42;2.83;;;1.10;;
37971;SDS011;23794;48.234;8.344;2022-10-16T16:25:09;3.30;;;1.00;;
37971;SDS011;23794;48.234;8.344;2022-10-16T16:27:36;4.63;;;1.02;;
37971;SDS011;23794;48.234;8.344;2022-10-16T16:30:09;7.63;;;1.20;;
37971;SDS011;23794;48.234;8.344;2022-10-16T16:32:45;4.65;;;1.00;;
37971;SDS011;23794;48.234;8.344;2022-10-16T16:35:12;4.95;;;0.93;;
37971;SDS011;23794;48.234;8.344;2022-10-16T16:37:39;4.25;;;1.27;;
37971;SDS011;23794;48.234;8.344;2022-10-16T16:40:06;7.25;;;0.85;;
37971;SDS011;23794;48.234;8.344;2022-10-16T16:42:33;3.45;;;0.88;;
37971;SDS011;23794;48.234;8.344;2022-10-16T16:45:00;1.83;;;1.15;;
37971;SDS011;23794;48.234;8.344;2022-10-16T16:47:27;3.45;;;0.90;;
37971;SDS011;23794;48.234;8.344;2022-10-16T16:49:54;1.95;;;0.90;;
37971;SDS011;23794;48.234;8.344;2022-10-16T16:52:21;4.93;;;0.98;;
37971;SDS011;23794;48.234;8.344;2022-10-16T16:54:48;5.07;;;1.30;;
37971;SDS011;23794;48.234;8.344;2022-10-16T16:57:19;3.40;;;1.02;;
37971;SDS011;23794;48.234;8.344;2022-10-16T16:59:46;5.22;;;1.30;;
37971;SDS011;23794;48.234;8.344;2022-10-16T17:02:16;4.75;;;1.20;;
37971;SDS011;23794;48.234;8.344;2022-10-16T17:04:43;6.80;;;1.60;;
37971;SDS011;23794;48.234;8.344;2022-10-16T17:07:10;4.97;;;1.30;;
37971;SDS011;23794;48.234;8.344;2022-10-16T17:09:37;4.45;;;1.40;;
37971;SDS011;23794;48.234;8.344;2022-10-16T17:12:04;1.90;;;1.00;;
37971;SDS011;23794;48.234;8.344;2022-10-16T17:14:30;7.93;;;1.60;;
37971;SDS011;23794;48.234;8.344;2022-10-16T17:16:58;5.03;;;1.10;;
37971;SDS011;23794;48.234;8.344;2022-10-16T17:19:25;6.28;;;0.90;;
37971;SDS011;23794;48.234;8.344;2022-10-16T17:21:52;3.67;;;1.20;;
37971;SDS011;23794;48.234;8.344;2022-10-16T17:24:19;6.10;;;1.90;;
37971;SDS011;23794;48.234;8.344;2022-10-16T17:26:47;7.68;;;1.73;;
37971;SDS011;23794;48.234;8.344;2022-10-16T17:29:14;4.90;;;1.20;;
37971;SDS011;23794;48.234;8.344;2022-10-16T17:31:43;2.72;;;1.10;;
37971;SDS011;23794;48.234;8.344;2022-10-16T17:34:10;4.75;;;1.25;;
37971;SDS011;23794;48.234;8.344;2022-10-16T17:36:38;2.80;;;1.08;;
37971;SDS011;23794;48.234;8.344;2022-10-16T17:39:10;5.82;;;1.25;;
37971;SDS011;23794;48.234;8.344;2022-10-16T17:41:39;6.90;;;1.35;;